sensor_id;sensor_type;location;lat;lon;timestamp;P1;durP1;ratioP1;P2;durP2;ratioP2
19179;SDS011;9722;48.754;8.868;2023-08-01T00:03:07;3.00;;;2.70;;
19179;SDS011;9722;48.754;8.868;2023-08-01T00:06:27;3.00;;;2.70;;
19179;SDS011;9722;48.754;8.868;2023-08-01T00:09:48;2.83;;;2.53;;
19179;SDS011;9722;48.754;8.868;2023-08-01T00:13:08;3.60;;;2.40;;
19179;SDS011;9722;48.754;8.868;2023-08-01T00:16:29;4.03;;;3.00;;
19179;SDS011;9722;48.754;8.868;2023-08-01T00:19:51;2.50;;;2.30;;
19179;SDS011;9722;48.754;8.868;2023-08-01T00:23:11;3.10;;;2.80;;
19179;SDS011;9722;48.754;8.868;2023-08-01T00:26:32;2.87;;;2.60;;
19179;SDS011;9722;48.754;8.868;2023-08-01T00:29:52;3.83;;;2.83;;
19179;SDS011;9722;48.754;8.868;2023-08-01T00:33:13;3.30;;;2.83;;
19179;SDS011;9722;48.754;8.868;2023-08-01T00:36:34;3.27;;;2.67;;
19179;SDS011;9722;48.754;8.868;2023-08-01T00:39:55;2.83;;;2.57;;
19179;SDS011;9722;48.754;8.868;2023-08-01T00:43:16;2.60;;;2.37;;
19179;SDS011;9722;48.754;8.868;2023-08-01T00:46:37;3.27;;;2.97;;
19179;SDS011;9722;48.754;8.868;2023-08-01T00:49:58;2.77;;;2.57;;
19179;SDS011;9722;48.754;8.868;2023-08-01T00:53:18;3.03;;;2.73;;
19179;SDS011;9722;48.754;8.868;2023-08-01T00:56:39;2.90;;;2.60;;
19179;SDS011;9722;48.754;8.868;2023-08-01T01:00:00;3.27;;;2.93;;
19179;SDS011;9722;48.754;8.868;2023-08-01T01:03:20;2.77;;;2.53;;
19179;SDS011;9722;48.754;8.868;2023-08-01T01:06:44;3.33;;;2.63;;
19179;SDS011;9722;48.754;8.868;2023-08-01T01:10:07;4.33;;;2.83;;
19179;SDS011;9722;48.754;8.868;2023-08-01T01:13:28;3.37;;;3.07;;
19179;SDS011;9722;48.754;8.868;2023-08-01T01:16:49;3.30;;;2.50;;
19179;SDS011;9722;48.754;8.868;2023-08-01T01:20:10;5.37;;;2.70;;
19179;SDS011;9722;48.754;8.868;2023-08-01T01:23:31;2.50;;;2.30;;
19179;SDS011;9722;48.754;8.868;2023-08-01T01:26:54;3.30;;;3.00;;
19179;SDS011;9722;48.754;8.868;2023-08-01T01:30:16;3.90;;;2.67;;
19179;SDS011;9722;48.754;8.868;2023-08-01T01:33:38;3.00;;;2.77;;
19179;SDS011;9722;48.754;8.868;2023-08-01T01:36:58;3.17;;;2.87;;
19179;SDS011;9722;48.754;8.868;2023-08-01T01:40:19;3.50;;;3.00;;
19179;SDS011;9722;48.754;8.868;2023-08-01T01:43:40;3.27;;;2.97;;
19179;SDS011;9722;48.754;8.868;2023-08-01T01:47:00;3.33;;;3.03;;
19179;SDS011;9722;48.754;8.868;2023-08-01T01:50:21;3.37;;;3.07;;
19179;SDS011;9722;48.754;8.868;2023-08-01T01:53:42;3.23;;;2.93;;
19179;SDS011;9722;48.754;8.868;2023-08-01T01:57:02;3.43;;;2.93;;
19179;SDS011;9722;48.754;8.868;2023-08-01T02:00:23;3.83;;;2.90;;
19179;SDS011;9722;48.754;8.868;2023-08-01T02:03:43;3.60;;;2.90;;
19179;SDS011;9722;48.754;8.868;2023-08-01T02:07:04;3.20;;;2.90;;
19179;SDS011;9722;48.754;8.868;2023-08-01T02:10:24;2.80;;;2.60;;
19179;SDS011;9722;48.754;8.868;2023-08-01T02:13:45;3.50;;;3.10;;
19179;SDS011;9722;48.754;8.868;2023-08-01T02:17:06;3.30;;;3.00;;
19179;SDS011;9722;48.754;8.868;2023-08-01T02:20:27;2.97;;;2.67;;
19179;SDS011;9722;48.754;8.868;2023-08-01T02:23:49;3.60;;;2.77;;
19179;SDS011;9722;48.754;8.868;2023-08-01T02:27:09;3.40;;;3.10;;
19179;SDS011;9722;48.754;8.868;2023-08-01T02:30:29;3.87;;;3.47;;
19179;SDS011;9722;48.754;8.868;2023-08-01T02:33:50;2.87;;;2.67;;
19179;SDS011;9722;48.754;8.868;2023-08-01T02:37:10;3.37;;;3.07;;
19179;SDS011;9722;48.754;8.868;2023-08-01T02:40:31;3.70;;;3.40;;
19179;SDS011;9722;48.754;8.868;2023-08-01T02:43:51;3.30;;;2.97;;
19179;SDS011;9722;48.754;8.868;2023-08-01T02:47:12;3.27;;;2.93;;
19179;SDS011;9722;48.754;8.868;2023-08-01T02:50:32;3.00;;;2.70;;
19179;SDS011;9722;48.754;8.868;2023-08-01T02:53:53;3.03;;;2.73;;
19179;SDS011;9722;48.754;8.868;2023-08-01T02:57:13;3.43;;;2.77;;
19179;SDS011;9722;48.754;8.868;2023-08-01T03:00:37;4.07;;;2.90;;
19179;SDS011;9722;48.754;8.868;2023-08-01T03:03:59;3.40;;;2.50;;
19179;SDS011;9722;48.754;8.868;2023-08-01T03:07:19;3.60;;;3.30;;
19179;SDS011;9722;48.754;8.868;2023-08-01T03:10:40;3.27;;;2.97;;
19179;SDS011;9722;48.754;8.868;2023-08-01T03:14:00;3.57;;;2.97;;
19179;SDS011;9722;48.754;8.868;2023-08-01T03:17:21;3.37;;;3.07;;
19179;SDS011;9722;48.754;8.868;2023-08-01T03:20:41;3.07;;;2.77;;
19179;SDS011;9722;48.754;8.868;2023-08-01T03:24:03;4.07;;;2.90;;
19179;SDS011;9722;48.754;8.868;2023-08-01T03:27:24;2.90;;;2.60;;
19179;SDS011;9722;48.754;8.868;2023-08-01T03:30:44;2.57;;;2.37;;
19179;SDS011;9722;48.754;8.868;2023-08-01T03:34:05;5.50;;;3.47;;
19179;SDS011;9722;48.754;8.868;2023-08-01T03:37:28;2.70;;;2.50;;
19179;SDS011;9722;48.754;8.868;2023-08-01T03:40:49;3.73;;;2.63;;
19179;SDS011;9722;48.754;8.868;2023-08-01T03:44:09;2.60;;;2.40;;
19179;SDS011;9722;48.754;8.868;2023-08-01T03:47:30;3.47;;;2.37;;
19179;SDS011;9722;48.754;8.868;2023-08-01T03:50:50;4.20;;;2.80;;
19179;SDS011;9722;48.754;8.868;2023-08-01T03:54:11;4.37;;;2.40;;
19179;SDS011;9722;48.754;8.868;2023-08-01T03:57:31;3.97;;;2.53;;
19179;SDS011;9722;48.754;8.868;2023-08-01T04:00:53;3.93;;;2.23;;
19179;SDS011;9722;48.754;8.868;2023-08-01T04:04:14;2.23;;;2.03;;
19179;SDS011;9722;48.754;8.868;2023-08-01T04:07:35;4.07;;;2.50;;
19179;SDS011;9722;48.754;8.868;2023-08-01T04:10:56;2.37;;;2.17;;
19179;SDS011;9722;48.754;8.868;2023-08-01T04:14:17;3.10;;;2.40;;
19179;SDS011;9722;48.754;8.868;2023-08-01T04:17:37;2.70;;;2.50;;
19179;SDS011;9722;48.754;8.868;2023-08-01T04:20:58;3.97;;;2.83;;
19179;SDS011;9722;48.754;8.868;2023-08-01T04:24:18;3.80;;;2.23;;
19179;SDS011;9722;48.754;8.868;2023-08-01T04:27:39;4.70;;;2.43;;
19179;SDS011;9722;48.754;8.868;2023-08-01T04:31:00;4.17;;;2.77;;
19179;SDS011;9722;48.754;8.868;2023-08-01T04:34:21;3.77;;;2.60;;
19179;SDS011;9722;48.754;8.868;2023-08-01T04:37:41;2.00;;;1.90;;
19179;SDS011;9722;48.754;8.868;2023-08-01T04:41:02;2.40;;;2.07;;
19179;SDS011;9722;48.754;8.868;2023-08-01T04:44:22;3.03;;;1.97;;
19179;SDS011;9722;48.754;8.868;2023-08-01T04:47:43;3.03;;;2.10;;
19179;SDS011;9722;48.754;8.868;2023-08-01T04:51:03;2.67;;;1.70;;
19179;SDS011;9722;48.754;8.868;2023-08-01T04:54:24;4.23;;;2.37;;
19179;SDS011;9722;48.754;8.868;2023-08-01T04:57:44;3.03;;;2.27;;
19179;SDS011;9722;48.754;8.868;2023-08-01T05:01:05;2.50;;;2.30;;
19179;SDS011;9722;48.754;8.868;2023-08-01T05:04:25;2.97;;;2.23;;
19179;SDS011;9722;48.754;8.868;2023-08-01T05:07:46;3.47;;;3.17;;
19179;SDS011;9722;48.754;8.868;2023-08-01T05:11:06;2.80;;;2.60;;
19179;SDS011;9722;48.754;8.868;2023-08-01T05:14:27;2.90;;;2.70;;
19179;SDS011;9722;48.754;8.868;2023-08-01T05:17:47;2.93;;;2.47;;
19179;SDS011;9722;48.754;8.868;2023-08-01T05:21:08;3.47;;;2.87;;
19179;SDS011;9722;48.754;8.868;2023-08-01T05:24:28;3.40;;;2.53;;
19179;SDS011;9722;48.754;8.868;2023-08-01T05:27:49;4.53;;;2.67;;
19179;SDS011;9722;48.754;8.868;2023-08-01T05:31:09;3.93;;;2.70;;
19179;SDS011;9722;48.754;8.868;2023-08-01T05:34:30;2.90;;;2.70;;
19179;SDS011;9722;48.754;8.868;2023-08-01T05:37:50;3.00;;;2.67;;
19179;SDS011;9722;48.754;8.868;2023-08-01T05:41:11;4.33;;;3.23;;
19179;SDS011;9722;48.754;8.868;2023-08-01T05:44:31;3.60;;;2.70;;
19179;SDS011;9722;48.754;8.868;2023-08-01T05:47:52;2.83;;;2.40;;
19179;SDS011;9722;48.754;8.868;2023-08-01T05:51:12;4.13;;;3.00;;
19179;SDS011;9722;48.754;8.868;2023-08-01T05:54:33;3.10;;;2.50;;
19179;SDS011;9722;48.754;8.868;2023-08-01T05:57:53;3.67;;;2.90;;
19179;SDS011;9722;48.754;8.868;2023-08-01T06:01:14;3.80;;;2.90;;
19179;SDS011;9722;48.754;8.868;2023-08-01T06:04:34;3.97;;;2.67;;
19179;SDS011;9722;48.754;8.868;2023-08-01T06:07:54;4.83;;;3.00;;
19179;SDS011;9722;48.754;8.868;2023-08-01T06:11:15;2.67;;;2.47;;
19179;SDS011;9722;48.754;8.868;2023-08-01T06:14:36;4.00;;;2.63;;
19179;SDS011;9722;48.754;8.868;2023-08-01T06:17:56;4.57;;;3.17;;
19179;SDS011;9722;48.754;8.868;2023-08-01T06:21:17;3.27;;;2.97;;
19179;SDS011;9722;48.754;8.868;2023-08-01T06:24:37;3.87;;;3.07;;
19179;SDS011;9722;48.754;8.868;2023-08-01T06:27:58;3.90;;;3.10;;
19179;SDS011;9722;48.754;8.868;2023-08-01T06:31:19;3.93;;;3.17;;
19179;SDS011;9722;48.754;8.868;2023-08-01T06:34:40;5.47;;;3.80;;
19179;SDS011;9722;48.754;8.868;2023-08-01T06:38:00;4.83;;;3.50;;
19179;SDS011;9722;48.754;8.868;2023-08-01T06:41:21;7.30;;;3.57;;
19179;SDS011;9722;48.754;8.868;2023-08-01T06:44:41;3.77;;;3.47;;
19179;SDS011;9722;48.754;8.868;2023-08-01T06:48:02;4.00;;;3.60;;
19179;SDS011;9722;48.754;8.868;2023-08-01T06:51:22;4.23;;;3.80;;
19179;SDS011;9722;48.754;8.868;2023-08-01T06:54:43;4.73;;;4.03;;
19179;SDS011;9722;48.754;8.868;2023-08-01T06:58:04;4.63;;;4.10;;
19179;SDS011;9722;48.754;8.868;2023-08-01T07:01:25;4.03;;;3.63;;
19179;SDS011;9722;48.754;8.868;2023-08-01T07:04:46;5.30;;;4.00;;
19179;SDS011;9722;48.754;8.868;2023-08-01T07:08:07;4.07;;;3.67;;
19179;SDS011;9722;48.754;8.868;2023-08-01T07:11:27;4.90;;;4.17;;
19179;SDS011;9722;48.754;8.868;2023-08-01T07:14:48;5.27;;;4.40;;
19179;SDS011;9722;48.754;8.868;2023-08-01T07:18:08;4.93;;;4.30;;
19179;SDS011;9722;48.754;8.868;2023-08-01T07:21:29;3.97;;;3.57;;
19179;SDS011;9722;48.754;8.868;2023-08-01T07:24:55;6.90;;;3.63;;
19179;SDS011;9722;48.754;8.868;2023-08-01T07:28:16;3.43;;;2.97;;
19179;SDS011;9722;48.754;8.868;2023-08-01T07:31:36;4.40;;;3.60;;
19179;SDS011;9722;48.754;8.868;2023-08-01T07:34:57;3.43;;;3.00;;
19179;SDS011;9722;48.754;8.868;2023-08-01T07:38:18;3.10;;;2.80;;
19179;SDS011;9722;48.754;8.868;2023-08-01T07:41:38;3.37;;;3.03;;
19179;SDS011;9722;48.754;8.868;2023-08-01T07:44:59;3.53;;;2.83;;
19179;SDS011;9722;48.754;8.868;2023-08-01T07:48:19;3.27;;;2.90;;
19179;SDS011;9722;48.754;8.868;2023-08-01T07:51:41;3.07;;;2.77;;
19179;SDS011;9722;48.754;8.868;2023-08-01T07:55:01;3.03;;;2.73;;
19179;SDS011;9722;48.754;8.868;2023-08-01T07:58:22;2.83;;;2.60;;
19179;SDS011;9722;48.754;8.868;2023-08-01T08:01:43;2.80;;;2.60;;
19179;SDS011;9722;48.754;8.868;2023-08-01T08:05:03;2.93;;;2.43;;
19179;SDS011;9722;48.754;8.868;2023-08-01T08:08:25;1.97;;;1.87;;
19179;SDS011;9722;48.754;8.868;2023-08-01T08:11:45;2.67;;;2.30;;
19179;SDS011;9722;48.754;8.868;2023-08-01T08:15:06;2.00;;;1.63;;
19179;SDS011;9722;48.754;8.868;2023-08-01T08:18:27;1.67;;;1.57;;
19179;SDS011;9722;48.754;8.868;2023-08-01T08:21:47;2.00;;;1.67;;
19179;SDS011;9722;48.754;8.868;2023-08-01T08:25:08;1.77;;;1.67;;
19179;SDS011;9722;48.754;8.868;2023-08-01T08:28:30;1.83;;;1.73;;
19179;SDS011;9722;48.754;8.868;2023-08-01T08:31:52;1.40;;;1.30;;
19179;SDS011;9722;48.754;8.868;2023-08-01T08:35:13;1.50;;;1.40;;
19179;SDS011;9722;48.754;8.868;2023-08-01T08:38:33;3.53;;;1.40;;
19179;SDS011;9722;48.754;8.868;2023-08-01T08:41:54;1.63;;;1.30;;
19179;SDS011;9722;48.754;8.868;2023-08-01T08:45:15;1.03;;;1.03;;
19179;SDS011;9722;48.754;8.868;2023-08-01T08:48:39;1.27;;;1.17;;
19179;SDS011;9722;48.754;8.868;2023-08-01T08:52:00;1.20;;;1.10;;
19179;SDS011;9722;48.754;8.868;2023-08-01T08:55:23;0.90;;;0.90;;
19179;SDS011;9722;48.754;8.868;2023-08-01T08:58:46;1.23;;;0.80;;
19179;SDS011;9722;48.754;8.868;2023-08-01T09:02:07;1.03;;;0.80;;
19179;SDS011;9722;48.754;8.868;2023-08-01T09:05:30;0.60;;;0.60;;
19179;SDS011;9722;48.754;8.868;2023-08-01T09:09:04;0.77;;;0.77;;
19179;SDS011;9722;48.754;8.868;2023-08-01T09:12:29;0.73;;;0.70;;
19179;SDS011;9722;48.754;8.868;2023-08-01T09:15:54;0.80;;;0.80;;
19179;SDS011;9722;48.754;8.868;2023-08-01T09:19:17;0.70;;;0.67;;
19179;SDS011;9722;48.754;8.868;2023-08-01T09:22:45;0.80;;;0.80;;
19179;SDS011;9722;48.754;8.868;2023-08-01T09:26:13;0.60;;;0.60;;
19179;SDS011;9722;48.754;8.868;2023-08-01T09:29:34;0.50;;;0.50;;
19179;SDS011;9722;48.754;8.868;2023-08-01T09:32:55;0.40;;;0.40;;
19179;SDS011;9722;48.754;8.868;2023-08-01T09:36:20;0.53;;;0.50;;
19179;SDS011;9722;48.754;8.868;2023-08-01T09:39:42;0.33;;;0.33;;
19179;SDS011;9722;48.754;8.868;2023-08-01T09:43:02;0.73;;;0.50;;
19179;SDS011;9722;48.754;8.868;2023-08-01T09:46:24;0.30;;;0.30;;
19179;SDS011;9722;48.754;8.868;2023-08-01T09:49:48;0.30;;;0.30;;
19179;SDS011;9722;48.754;8.868;2023-08-01T09:53:13;0.20;;;0.20;;
19179;SDS011;9722;48.754;8.868;2023-08-01T09:56:34;0.40;;;0.20;;
19179;SDS011;9722;48.754;8.868;2023-08-01T09:59:56;1.07;;;0.30;;
19179;SDS011;9722;48.754;8.868;2023-08-01T10:03:17;1.60;;;0.30;;
19179;SDS011;9722;48.754;8.868;2023-08-01T10:06:38;0.67;;;0.50;;
19179;SDS011;9722;48.754;8.868;2023-08-01T10:10:03;0.83;;;0.50;;
19179;SDS011;9722;48.754;8.868;2023-08-01T10:13:24;1.07;;;0.30;;
19179;SDS011;9722;48.754;8.868;2023-08-01T10:16:44;0.40;;;0.30;;
19179;SDS011;9722;48.754;8.868;2023-08-01T10:20:06;0.33;;;0.33;;
19179;SDS011;9722;48.754;8.868;2023-08-01T10:23:27;0.13;;;0.13;;
19179;SDS011;9722;48.754;8.868;2023-08-01T10:26:48;0.53;;;0.37;;
19179;SDS011;9722;48.754;8.868;2023-08-01T10:30:09;0.63;;;0.37;;
19179;SDS011;9722;48.754;8.868;2023-08-01T10:33:32;0.43;;;0.43;;
19179;SDS011;9722;48.754;8.868;2023-08-01T10:36:54;0.40;;;0.40;;
19179;SDS011;9722;48.754;8.868;2023-08-01T10:40:15;0.87;;;0.30;;
19179;SDS011;9722;48.754;8.868;2023-08-01T10:43:36;0.47;;;0.40;;
19179;SDS011;9722;48.754;8.868;2023-08-01T10:46:58;0.33;;;0.30;;
19179;SDS011;9722;48.754;8.868;2023-08-01T10:50:19;0.40;;;0.40;;
19179;SDS011;9722;48.754;8.868;2023-08-01T10:53:40;0.30;;;0.30;;
19179;SDS011;9722;48.754;8.868;2023-08-01T10:57:01;0.50;;;0.50;;
19179;SDS011;9722;48.754;8.868;2023-08-01T11:00:22;0.60;;;0.60;;
19179;SDS011;9722;48.754;8.868;2023-08-01T11:03:42;1.40;;;0.70;;
19179;SDS011;9722;48.754;8.868;2023-08-01T11:07:04;1.57;;;0.70;;
19179;SDS011;9722;48.754;8.868;2023-08-01T11:10:25;0.47;;;0.47;;
19179;SDS011;9722;48.754;8.868;2023-08-01T11:13:50;0.60;;;0.60;;
19179;SDS011;9722;48.754;8.868;2023-08-01T11:17:13;0.70;;;0.70;;
19179;SDS011;9722;48.754;8.868;2023-08-01T11:20:38;3.23;;;1.50;;
19179;SDS011;9722;48.754;8.868;2023-08-01T11:23:59;0.70;;;0.70;;
19179;SDS011;9722;48.754;8.868;2023-08-01T11:27:26;0.60;;;0.60;;
19179;SDS011;9722;48.754;8.868;2023-08-01T11:30:47;2.60;;;0.90;;
19179;SDS011;9722;48.754;8.868;2023-08-01T11:34:08;1.43;;;0.70;;
19179;SDS011;9722;48.754;8.868;2023-08-01T11:37:30;3.60;;;0.90;;
19179;SDS011;9722;48.754;8.868;2023-08-01T11:40:51;0.87;;;0.80;;
19179;SDS011;9722;48.754;8.868;2023-08-01T11:44:12;0.73;;;0.73;;
19179;SDS011;9722;48.754;8.868;2023-08-01T11:47:32;0.77;;;0.67;;
19179;SDS011;9722;48.754;8.868;2023-08-01T11:50:57;1.33;;;0.80;;
19179;SDS011;9722;48.754;8.868;2023-08-01T11:54:18;0.80;;;0.80;;
19179;SDS011;9722;48.754;8.868;2023-08-01T11:57:38;0.77;;;0.70;;
19179;SDS011;9722;48.754;8.868;2023-08-01T12:01:06;0.70;;;0.60;;
19179;SDS011;9722;48.754;8.868;2023-08-01T12:04:28;2.00;;;0.90;;
19179;SDS011;9722;48.754;8.868;2023-08-01T12:07:48;0.77;;;0.70;;
19179;SDS011;9722;48.754;8.868;2023-08-01T12:14:49;1.33;;;1.10;;
19179;SDS011;9722;48.754;8.868;2023-08-01T12:18:10;2.20;;;0.70;;
19179;SDS011;9722;48.754;8.868;2023-08-01T12:21:31;0.60;;;0.60;;
19179;SDS011;9722;48.754;8.868;2023-08-01T12:24:52;0.60;;;0.60;;
19179;SDS011;9722;48.754;8.868;2023-08-01T12:28:14;0.60;;;0.60;;
19179;SDS011;9722;48.754;8.868;2023-08-01T12:31:34;1.77;;;0.97;;
19179;SDS011;9722;48.754;8.868;2023-08-01T12:34:55;0.83;;;0.70;;
19179;SDS011;9722;48.754;8.868;2023-08-01T12:38:15;1.87;;;0.80;;
19179;SDS011;9722;48.754;8.868;2023-08-01T12:41:36;0.80;;;0.80;;
19179;SDS011;9722;48.754;8.868;2023-08-01T12:44:57;0.60;;;0.60;;
19179;SDS011;9722;48.754;8.868;2023-08-01T12:48:18;0.80;;;0.70;;
19179;SDS011;9722;48.754;8.868;2023-08-01T12:51:39;0.90;;;0.90;;
19179;SDS011;9722;48.754;8.868;2023-08-01T12:54:59;0.93;;;0.90;;
19179;SDS011;9722;48.754;8.868;2023-08-01T12:58:20;1.40;;;0.80;;
19179;SDS011;9722;48.754;8.868;2023-08-01T13:01:40;1.27;;;0.80;;
19179;SDS011;9722;48.754;8.868;2023-08-01T13:05:01;0.70;;;0.70;;
19179;SDS011;9722;48.754;8.868;2023-08-01T13:08:22;1.40;;;1.00;;
19179;SDS011;9722;48.754;8.868;2023-08-01T13:11:42;0.83;;;0.83;;
19179;SDS011;9722;48.754;8.868;2023-08-01T13:15:04;1.37;;;0.90;;
19179;SDS011;9722;48.754;8.868;2023-08-01T13:18:25;1.40;;;1.00;;
19179;SDS011;9722;48.754;8.868;2023-08-01T13:21:45;0.97;;;0.90;;
19179;SDS011;9722;48.754;8.868;2023-08-01T13:25:06;1.67;;;0.90;;
19179;SDS011;9722;48.754;8.868;2023-08-01T13:28:27;1.10;;;0.87;;
19179;SDS011;9722;48.754;8.868;2023-08-01T13:31:47;1.20;;;0.80;;
19179;SDS011;9722;48.754;8.868;2023-08-01T13:35:08;1.07;;;0.90;;
19179;SDS011;9722;48.754;8.868;2023-08-01T13:38:29;1.20;;;0.83;;
19179;SDS011;9722;48.754;8.868;2023-08-01T13:41:50;1.93;;;1.10;;
19179;SDS011;9722;48.754;8.868;2023-08-01T13:45:10;1.53;;;1.00;;
19179;SDS011;9722;48.754;8.868;2023-08-01T13:48:31;1.70;;;0.80;;
19179;SDS011;9722;48.754;8.868;2023-08-01T13:51:51;1.80;;;0.90;;
19179;SDS011;9722;48.754;8.868;2023-08-01T13:55:12;0.93;;;0.93;;
19179;SDS011;9722;48.754;8.868;2023-08-01T13:58:33;2.80;;;0.90;;
19179;SDS011;9722;48.754;8.868;2023-08-01T14:01:53;1.30;;;0.90;;
19179;SDS011;9722;48.754;8.868;2023-08-01T14:05:14;1.37;;;1.00;;
19179;SDS011;9722;48.754;8.868;2023-08-01T14:08:34;1.13;;;0.80;;
19179;SDS011;9722;48.754;8.868;2023-08-01T14:11:55;1.23;;;0.83;;
19179;SDS011;9722;48.754;8.868;2023-08-01T14:15:16;0.93;;;0.87;;
19179;SDS011;9722;48.754;8.868;2023-08-01T14:18:36;1.40;;;0.90;;
19179;SDS011;9722;48.754;8.868;2023-08-01T14:21:57;1.10;;;0.67;;
19179;SDS011;9722;48.754;8.868;2023-08-01T14:25:17;0.87;;;0.80;;
19179;SDS011;9722;48.754;8.868;2023-08-01T14:28:38;1.13;;;0.80;;
19179;SDS011;9722;48.754;8.868;2023-08-01T14:31:58;2.60;;;1.17;;
19179;SDS011;9722;48.754;8.868;2023-08-01T14:35:19;0.83;;;0.80;;
19179;SDS011;9722;48.754;8.868;2023-08-01T14:38:39;1.47;;;1.10;;
19179;SDS011;9722;48.754;8.868;2023-08-01T14:42:00;1.13;;;0.90;;
19179;SDS011;9722;48.754;8.868;2023-08-01T14:45:21;2.00;;;0.90;;
19179;SDS011;9722;48.754;8.868;2023-08-01T14:48:41;0.80;;;0.77;;
19179;SDS011;9722;48.754;8.868;2023-08-01T14:52:02;1.40;;;0.83;;
19179;SDS011;9722;48.754;8.868;2023-08-01T14:55:23;0.90;;;0.90;;
19179;SDS011;9722;48.754;8.868;2023-08-01T14:58:43;4.73;;;1.00;;
19179;SDS011;9722;48.754;8.868;2023-08-01T15:02:04;1.40;;;0.90;;
19179;SDS011;9722;48.754;8.868;2023-08-01T15:05:26;0.70;;;0.70;;
19179;SDS011;9722;48.754;8.868;2023-08-01T15:08:46;0.90;;;0.80;;
19179;SDS011;9722;48.754;8.868;2023-08-01T15:12:07;2.37;;;0.90;;
19179;SDS011;9722;48.754;8.868;2023-08-01T15:15:27;1.43;;;0.70;;
19179;SDS011;9722;48.754;8.868;2023-08-01T15:18:48;0.97;;;0.80;;
19179;SDS011;9722;48.754;8.868;2023-08-01T15:22:08;1.20;;;0.97;;
19179;SDS011;9722;48.754;8.868;2023-08-01T15:25:29;1.13;;;0.90;;
19179;SDS011;9722;48.754;8.868;2023-08-01T15:28:49;1.13;;;0.90;;
19179;SDS011;9722;48.754;8.868;2023-08-01T15:32:10;1.50;;;0.90;;
19179;SDS011;9722;48.754;8.868;2023-08-01T15:35:30;1.20;;;0.80;;
19179;SDS011;9722;48.754;8.868;2023-08-01T15:38:51;2.23;;;0.80;;
19179;SDS011;9722;48.754;8.868;2023-08-01T15:42:12;1.93;;;0.87;;
19179;SDS011;9722;48.754;8.868;2023-08-01T15:45:32;1.03;;;0.80;;
19179;SDS011;9722;48.754;8.868;2023-08-01T15:48:53;1.10;;;1.00;;
19179;SDS011;9722;48.754;8.868;2023-08-01T15:52:13;0.90;;;0.83;;
19179;SDS011;9722;48.754;8.868;2023-08-01T15:55:34;0.90;;;0.73;;
19179;SDS011;9722;48.754;8.868;2023-08-01T15:58:54;1.10;;;1.00;;
19179;SDS011;9722;48.754;8.868;2023-08-01T16:02:15;1.80;;;0.80;;
19179;SDS011;9722;48.754;8.868;2023-08-01T16:05:36;1.10;;;1.00;;
19179;SDS011;9722;48.754;8.868;2023-08-01T16:08:56;0.80;;;0.80;;
19179;SDS011;9722;48.754;8.868;2023-08-01T16:12:17;1.57;;;1.00;;
19179;SDS011;9722;48.754;8.868;2023-08-01T16:15:38;1.57;;;0.97;;
19179;SDS011;9722;48.754;8.868;2023-08-01T16:19:00;2.13;;;0.93;;
19179;SDS011;9722;48.754;8.868;2023-08-01T16:22:21;1.10;;;0.83;;
19179;SDS011;9722;48.754;8.868;2023-08-01T16:25:41;1.17;;;0.70;;
19179;SDS011;9722;48.754;8.868;2023-08-01T16:29:02;2.97;;;0.90;;
19179;SDS011;9722;48.754;8.868;2023-08-01T16:32:22;1.47;;;0.90;;
19179;SDS011;9722;48.754;8.868;2023-08-01T16:35:43;1.47;;;1.10;;
19179;SDS011;9722;48.754;8.868;2023-08-01T16:39:04;1.17;;;0.90;;
19179;SDS011;9722;48.754;8.868;2023-08-01T16:42:26;0.80;;;0.80;;
19179;SDS011;9722;48.754;8.868;2023-08-01T16:45:47;1.10;;;0.80;;
19179;SDS011;9722;48.754;8.868;2023-08-01T16:49:07;1.37;;;1.00;;
19179;SDS011;9722;48.754;8.868;2023-08-01T16:52:28;1.13;;;0.93;;
19179;SDS011;9722;48.754;8.868;2023-08-01T16:55:48;0.90;;;0.60;;
19179;SDS011;9722;48.754;8.868;2023-08-01T16:59:09;1.07;;;0.70;;
19179;SDS011;9722;48.754;8.868;2023-08-01T17:02:30;2.50;;;0.90;;
19179;SDS011;9722;48.754;8.868;2023-08-01T17:05:50;1.17;;;0.77;;
19179;SDS011;9722;48.754;8.868;2023-08-01T17:09:13;1.00;;;0.90;;
19179;SDS011;9722;48.754;8.868;2023-08-01T17:12:33;1.00;;;0.73;;
19179;SDS011;9722;48.754;8.868;2023-08-01T17:15:54;1.00;;;0.90;;
19179;SDS011;9722;48.754;8.868;2023-08-01T17:19:14;0.90;;;0.90;;
19179;SDS011;9722;48.754;8.868;2023-08-01T17:22:35;0.80;;;0.80;;
19179;SDS011;9722;48.754;8.868;2023-08-01T17:25:56;1.27;;;0.70;;
19179;SDS011;9722;48.754;8.868;2023-08-01T17:29:16;2.03;;;1.20;;
19179;SDS011;9722;48.754;8.868;2023-08-01T17:32:37;2.50;;;0.90;;
19179;SDS011;9722;48.754;8.868;2023-08-01T17:35:58;1.20;;;1.10;;
19179;SDS011;9722;48.754;8.868;2023-08-01T17:39:18;1.60;;;1.10;;
19179;SDS011;9722;48.754;8.868;2023-08-01T17:42:39;1.17;;;1.13;;
19179;SDS011;9722;48.754;8.868;2023-08-01T17:45:59;1.00;;;0.87;;
19179;SDS011;9722;48.754;8.868;2023-08-01T17:49:20;1.30;;;1.00;;
19179;SDS011;9722;48.754;8.868;2023-08-01T17:52:40;0.80;;;0.80;;
19179;SDS011;9722;48.754;8.868;2023-08-01T17:56:01;1.17;;;0.90;;
19179;SDS011;9722;48.754;8.868;2023-08-01T17:59:22;1.27;;;0.83;;
19179;SDS011;9722;48.754;8.868;2023-08-01T18:02:42;1.20;;;1.10;;
19179;SDS011;9722;48.754;8.868;2023-08-01T18:09:27;1.93;;;0.93;;
19179;SDS011;9722;48.754;8.868;2023-08-01T18:12:48;0.93;;;0.90;;
19179;SDS011;9722;48.754;8.868;2023-08-01T18:16:08;0.93;;;0.83;;
19179;SDS011;9722;48.754;8.868;2023-08-01T18:19:29;1.17;;;0.80;;
19179;SDS011;9722;48.754;8.868;2023-08-01T18:22:50;1.03;;;0.90;;
19179;SDS011;9722;48.754;8.868;2023-08-01T18:26:21;1.90;;;1.00;;
19179;SDS011;9722;48.754;8.868;2023-08-01T18:29:43;1.07;;;1.00;;
19179;SDS011;9722;48.754;8.868;2023-08-01T18:33:03;1.70;;;0.83;;
19179;SDS011;9722;48.754;8.868;2023-08-01T18:36:24;1.00;;;1.00;;
19179;SDS011;9722;48.754;8.868;2023-08-01T18:39:44;1.43;;;1.10;;
19179;SDS011;9722;48.754;8.868;2023-08-01T18:43:05;1.93;;;0.80;;
19179;SDS011;9722;48.754;8.868;2023-08-01T18:46:26;0.87;;;0.70;;
19179;SDS011;9722;48.754;8.868;2023-08-01T18:49:46;1.30;;;0.90;;
19179;SDS011;9722;48.754;8.868;2023-08-01T18:53:10;1.17;;;0.90;;
19179;SDS011;9722;48.754;8.868;2023-08-01T18:56:30;1.17;;;0.87;;
19179;SDS011;9722;48.754;8.868;2023-08-01T18:59:51;1.20;;;1.10;;
19179;SDS011;9722;48.754;8.868;2023-08-01T19:03:11;2.13;;;0.97;;
19179;SDS011;9722;48.754;8.868;2023-08-01T19:06:32;1.17;;;0.90;;
19179;SDS011;9722;48.754;8.868;2023-08-01T19:09:52;1.97;;;1.00;;
19179;SDS011;9722;48.754;8.868;2023-08-01T19:13:13;1.20;;;0.97;;
19179;SDS011;9722;48.754;8.868;2023-08-01T19:16:33;1.03;;;0.90;;
19179;SDS011;9722;48.754;8.868;2023-08-01T19:19:54;1.87;;;1.20;;
19179;SDS011;9722;48.754;8.868;2023-08-01T19:23:14;1.30;;;1.07;;
19179;SDS011;9722;48.754;8.868;2023-08-01T19:26:35;1.20;;;1.10;;
19179;SDS011;9722;48.754;8.868;2023-08-01T19:29:55;1.17;;;1.07;;
19179;SDS011;9722;48.754;8.868;2023-08-01T19:33:16;1.40;;;0.93;;
19179;SDS011;9722;48.754;8.868;2023-08-01T19:36:37;1.63;;;1.10;;
19179;SDS011;9722;48.754;8.868;2023-08-01T19:39:57;1.30;;;1.10;;
19179;SDS011;9722;48.754;8.868;2023-08-01T19:43:18;1.50;;;1.00;;
19179;SDS011;9722;48.754;8.868;2023-08-01T19:46:38;2.60;;;1.10;;
19179;SDS011;9722;48.754;8.868;2023-08-01T19:49:59;1.50;;;1.00;;
19179;SDS011;9722;48.754;8.868;2023-08-01T19:53:20;1.30;;;1.10;;
19179;SDS011;9722;48.754;8.868;2023-08-01T19:56:41;1.07;;;0.93;;
19179;SDS011;9722;48.754;8.868;2023-08-01T20:00:01;1.20;;;1.03;;
19179;SDS011;9722;48.754;8.868;2023-08-01T20:03:26;1.03;;;1.03;;
19179;SDS011;9722;48.754;8.868;2023-08-01T20:06:51;1.53;;;1.10;;
19179;SDS011;9722;48.754;8.868;2023-08-01T20:10:12;1.20;;;1.07;;
19179;SDS011;9722;48.754;8.868;2023-08-01T20:13:32;1.60;;;1.23;;
19179;SDS011;9722;48.754;8.868;2023-08-01T20:16:53;1.53;;;1.10;;
19179;SDS011;9722;48.754;8.868;2023-08-01T20:20:14;2.60;;;1.10;;
19179;SDS011;9722;48.754;8.868;2023-08-01T20:23:35;1.37;;;1.10;;
19179;SDS011;9722;48.754;8.868;2023-08-01T20:26:55;1.40;;;1.30;;
19179;SDS011;9722;48.754;8.868;2023-08-01T20:30:16;1.47;;;1.10;;
19179;SDS011;9722;48.754;8.868;2023-08-01T20:33:36;1.90;;;1.10;;
19179;SDS011;9722;48.754;8.868;2023-08-01T20:36:57;1.83;;;1.10;;